Latest Weather Observations for Loxton

IDS60801

Issued at 8:41 pm CDT Friday 21 February 2020 (issued every 10 minutes, with the page automatically refreshed every 10 minutes)

About weather observations | Map of weather stations | Latest weather observations for SA | Other Formats
Station Details ID: 024024 Name: LOXTON RESEARCH CENTRE Lat: -34.44 Lon: 140.60 Height: 30.1 m
Data from the previous 72 hours. | See also: Recent months at Loxton
Date/Time
CDT
Temp
°C
App
Temp
°C
Dew
Point
°C
Rel
Hum
%
Delta-T
°C
Wind Press
QNH
hPa
Press
MSL
hPa
Rain since
9am
mm
Dir  Spd
km/h
Gust
km/h
Spd
kts
Gust
kts
21/08:30pm 22.5 19.1 6.1 34 8.3 SSW 13 17 7 9 1018.5 1018.3 0.0
21/08:00pm 23.4 19.3 6.1 32 8.8 S 17 22 9 12 1018.2 1018.0 0.0
21/07:30pm 24.3 20.2 6.2 31 9.3 S 17 24 9 13 1017.9 1017.7 0.0
21/07:00pm 24.9 20.3 5.7 29 9.8 S 19 26 10 14 1017.7 1017.5 0.0
21/06:30pm 25.4 20.7 5.3 27 10.2 S 19 28 10 15 1017.5 1017.3 0.0
21/06:00pm 25.9 21.2 5.3 26 10.5 S 19 30 10 16 1017.3 1017.1 0.0
21/05:30pm 26.2 21.4 4.9 25 10.8 S 19 33 10 18 1017.1 1016.9 0.0
21/05:00pm 26.0 21.0 4.5 25 10.8 S 20 32 11 17 1017.0 1016.8 0.0
21/04:30pm 25.8 20.8 4.5 25 10.7 S 20 30 11 16 1017.2 1017.0 0.0
21/04:00pm 25.6 20.2 4.4 25 10.6 S 22 30 12 16 1017.5 1017.3 0.0
21/03:30pm 25.2 19.8 4.7 26 10.3 S 22 30 12 16 1018.0 1017.8 0.0
21/03:00pm 25.0 20.3 5.2 28 10.0 SE 19 32 10 17 1018.3 1018.1 0.0
21/02:30pm 23.8 19.4 5.0 29 9.4 SSE 17 32 9 17 1018.9 1018.7 0.0
21/02:00pm 23.5 18.9 5.4 31 9.1 SSE 19 35 10 19 1019.3 1019.1 0.0
21/01:30pm 22.5 18.4 6.1 34 8.3 SSE 17 26 9 14 1019.7 1019.5 0.0
21/01:00pm 21.5 17.4 6.2 37 7.7 SSW 17 30 9 16 1020.2 1020.1 0.0
21/12:30pm 20.4 17.2 6.7 41 6.9 SSW 13 20 7 11 1020.6 1020.5 0.0
21/12:00pm 20.3 16.3 6.6 41 6.9 S 17 24 9 13 1021.0 1020.9 0.0
21/11:30am 19.5 15.6 7.0 44 6.3 S 17 28 9 15 1021.3 1021.2 0.0
21/11:00am 19.1 15.2 7.2 46 6.0 SSE 17 26 9 14 1021.4 1021.3 0.0
21/10:30am 17.9 14.1 7.6 51 5.2 SSE 17 24 9 13 1021.5 1021.4 0.0
21/10:00am 17.0 13.7 7.9 55 4.6 SSE 15 22 8 12 1021.4 1021.3 0.0
21/09:30am 16.0 12.3 7.8 58 4.1 SSE 17 26 9 14 1021.2 1021.1 0.0
21/09:00am 15.7 12.5 8.4 62 3.7 SE 15 20 8 11 1021.2 1021.1 0.0
21/08:30am 14.1 10.5 8.5 69 2.8 SSE 17 24 9 13 1020.8 1020.7 0.0
21/08:00am 12.8 9.6 8.4 74 2.2 S 15 20 8 11 1020.6 1020.5 0.0
21/07:30am 11.9 9.8 8.2 78 1.8 S 9 15 5 8 1020.3 1020.2 0.0
21/07:00am 11.5 9.0 8.0 79 1.7 S 11 15 6 8 1019.7 1019.5 0.0
21/06:30am 11.7 8.7 7.8 77 1.9 S 13 15 7 8 1019.2 1019.0 0.0
21/06:00am 11.9 9.3 7.6 75 2.1 S 11 15 6 8 1019.0 1018.8 0.0
21/05:30am 12.2 9.1 7.4 72 2.3 S 13 17 7 9 1018.7 1018.5 0.0
21/05:00am 12.5 9.5 7.6 72 2.4 S 13 17 7 9 1018.5 1018.3 0.0
21/04:30am 12.9 9.8 7.3 69 2.7 S 13 17 7 9 1018.0 1017.8 0.0
21/04:00am 13.4 9.9 7.2 66 3.0 S 15 20 8 11 1018.0 1017.8 0.0
21/03:30am 13.7 10.2 7.1 64 3.2 S 15 24 8 13 1018.1 1017.9 0.0
21/03:00am 14.1 10.6 7.1 62 3.4 S 15 19 8 10 1018.0 1017.8 0.0
21/02:30am 14.4 10.9 7.3 62 3.5 S 15 20 8 11 1018.1 1017.9 0.0
21/02:00am 14.9 10.6 6.9 58 3.9 S 19 28 10 15 1018.3 1018.1 0.0
21/01:30am 15.2 10.9 7.0 58 4.0 SSW 19 26 10 14 1018.5 1018.3 0.0
21/01:00am 15.6 11.3 7.1 57 4.2 SSW 19 30 10 16 1018.5 1018.3 0.0
21/12:30am 16.0 11.5 7.1 55 4.4 SSW 20 33 11 18 1018.5 1018.3 0.0
21/12:00am 16.2 11.0 7.4 56 4.4 SSW 24 35 13 19 1018.2 1018.0 0.0
 
Date/Time
CDT
Temp
°C
App
Temp
°C
Dew
Point
°C
Rel
Hum
%
Delta-T
°C
Wind Press
QNH
hPa
Press
MSL
hPa
Rain since
9am
mm
Dir  Spd
km/h
Gust
km/h
Spd
kts
Gust
kts
20/11:30pm 16.5 11.4 7.5 55 4.5 SSW 24 37 13 20 1018.1 1017.9 0.0
20/11:00pm 17.0 11.1 7.7 54 4.7 SSW 28 39 15 21 1018.2 1018.0 0.0
20/10:30pm 18.0 12.6 7.8 51 5.2 SW 26 35 14 19 1018.0 1017.8 0.0
20/10:00pm 19.4 15.0 6.4 42 6.5 SW 19 30 10 16 1017.6 1017.4 0.0
20/09:30pm 19.5 15.8 6.2 42 6.6 SW 15 20 8 11 1017.1 1016.9 0.0
20/09:00pm 19.8 16.9 6.4 41 6.7 SSW 11 17 6 9 1016.4 1016.2 0.0
20/08:30pm 20.6 17.5 5.7 37 7.4 SSW 11 19 6 10 1015.9 1015.7 0.0
20/08:00pm 21.5 17.2 5.4 35 8.0 SSW 17 26 9 14 1015.6 1015.4 0.0
20/07:30pm 22.3 18.0 5.2 33 8.5 SSW 17 32 9 17 1015.3 1015.1 0.0
20/07:00pm 23.5 19.0 4.2 28 9.5 SSW 17 26 9 14 1015.0 1014.8 0.0
20/06:30pm 24.1 19.9 4.0 27 9.9 S 15 20 8 11 1014.9 1014.7 0.0
20/06:00pm 24.2 19.6 3.9 26 10.0 SSW 17 30 9 16 1014.8 1014.6 0.0
20/05:30pm 24.4 20.3 4.2 27 10.0 SSW 15 26 8 14 1014.8 1014.6 0.0
20/05:00pm 24.3 20.3 4.7 28 9.8 SSW 15 26 8 14 1015.2 1015.0 0.0
20/04:30pm 24.3 20.3 4.7 28 9.8 S 15 20 8 11 1015.3 1015.1 0.0
20/04:00pm 24.2 19.7 4.2 27 9.9 S 17 22 9 12 1015.3 1015.1 0.0
20/03:30pm 23.2 19.0 4.0 28 9.4 SSW 15 22 8 12 1015.8 1015.6 0.0
20/03:00pm 22.9 18.3 3.8 28 9.3 S 17 26 9 14 1016.2 1016.0 0.0
20/02:30pm 23.1 18.0 3.1 27 9.6 S 19 28 10 15 1016.4 1016.2 0.0
20/02:00pm 21.8 18.2 5.0 33 8.3 SSE 13 20 7 11 1016.7 1016.5 0.0
20/01:30pm 21.5 17.3 3.9 31 8.5 SSW 15 22 8 12 1017.0 1016.8 0.0
20/01:00pm 20.5 16.4 4.1 34 7.9 S 15 26 8 14 1017.1 1016.9 0.0
20/12:30pm 19.7 15.2 4.3 36 7.4 S 17 26 9 14 1017.5 1017.3 0.0
20/12:00pm 19.0 14.9 4.6 38 6.9 S 15 26 8 14 1018.1 1017.9 0.0
20/11:30am 18.4 14.8 4.9 41 6.5 S 13 24 7 13 1018.6 1018.4 0.0
20/11:00am 18.5 14.2 5.3 42 6.4 SSE 17 30 9 16 1018.8 1018.6 0.0
20/10:30am 17.1 12.9 5.5 46 5.6 SSE 17 28 9 15 1018.9 1018.7 0.0
20/10:00am 17.1 12.3 5.5 46 5.6 SSE 20 30 11 16 1018.6 1018.4 0.0
20/09:30am 16.3 11.5 5.7 49 5.1 SSE 20 30 11 16 1018.4 1018.2 0.0
20/09:00am 15.5 11.2 6.9 56 4.2 SE 19 26 10 14 1018.3 1018.1 0.0
20/08:30am 14.2 10.2 6.5 60 3.7 SE 17 22 9 12 1018.1 1017.9 0.0
20/08:00am 12.3 9.4 6.4 67 2.8 SSE 11 17 6 9 1017.9 1017.7 0.0
20/07:30am 10.7 7.8 6.4 75 2.0 S 11 17 6 9 1017.6 1017.4 0.0
20/07:00am 10.1 7.6 6.7 79 1.6 S 9 15 5 8 1017.5 1017.3 0.0
20/06:30am 10.4 7.2 6.8 78 1.7 S 13 15 7 8 1016.9 1016.7 0.0
20/06:00am 10.6 8.2 6.8 77 1.8 S 9 13 5 7 1016.8 1016.6 0.0
20/05:30am 11.0 8.2 6.8 75 2.0 SSW 11 15 6 8 1016.6 1016.4 0.0
20/05:00am 11.4 8.5 6.5 72 2.3 SSW 11 15 6 8 1016.4 1016.2 0.0
20/04:30am 11.7 8.8 6.6 71 2.4 SSW 11 17 6 9 1016.3 1016.1 0.0
20/04:00am 12.2 8.9 6.5 68 2.7 S 13 17 7 9 1015.9 1015.7 0.0
20/03:30am 12.4 9.2 7.0 69 2.6 S 13 19 7 10 1015.7 1015.5 0.0
20/03:00am 12.6 9.9 7.2 69 2.6 SSW 11 17 6 9 1015.7 1015.5 0.0
20/02:30am 12.9 10.3 7.6 70 2.6 SSW 11 15 6 8 1015.8 1015.6 0.0
20/02:00am 13.3 10.3 7.8 69 2.7 SSW 13 20 7 11 1015.9 1015.7 0.0
20/01:30am 13.7 10.3 7.8 67 2.9 SSW 15 20 8 11 1016.1 1015.9 0.0
20/01:00am 14.0 10.2 7.7 66 3.1 SSW 17 24 9 13 1016.3 1016.1 0.0
20/12:30am 14.4 10.6 7.7 64 3.3 SSW 17 28 9 15 1016.7 1016.5 0.0
20/12:00am 14.8 11.1 7.8 63 3.5 SSW 17 24 9 13 1016.8 1016.6 0.0
 
Date/Time
CDT
Temp
°C
App
Temp
°C
Dew
Point
°C
Rel
Hum
%
Delta-T
°C
Wind Press
QNH
hPa
Press
MSL
hPa
Rain since
9am
mm
Dir  Spd
km/h
Gust
km/h
Spd
kts
Gust
kts
19/11:30pm 15.4 11.1 7.8 60 3.8 SSW 20 33 11 18 1016.8 1016.6 0.0
19/11:00pm 15.9 11.6 7.7 58 4.1 SW 20 30 11 16 1016.8 1016.6 0.0
19/10:30pm 16.7 11.9 7.3 54 4.7 SW 22 35 12 19 1016.7 1016.5 0.0
19/10:00pm 17.4 12.8 6.4 48 5.4 SW 20 28 11 15 1016.3 1016.1 0.0
19/09:30pm 18.2 13.7 6.8 47 5.7 SW 20 30 11 16 1015.7 1015.5 0.0
19/09:00pm 19.1 14.7 6.7 44 6.2 SSW 19 28 10 15 1015.3 1015.1 0.0
19/08:30pm 20.0 15.4 6.5 41 6.8 SW 20 30 11 16 1015.1 1014.9 0.0
19/08:00pm 20.8 16.3 6.3 39 7.3 SW 19 28 10 15 1015.0 1014.8 0.0
19/07:30pm 21.7 17.2 6.3 36 7.8 SSW 19 28 10 15 1014.6 1014.4 0.0
19/07:00pm 22.2 17.5 6.2 35 8.1 SSW 20 30 11 16 1014.1 1013.9 0.0
19/06:30pm 22.7 17.6 6.2 34 8.4 SW 22 35 12 19 1014.1 1013.9 0.0
19/06:00pm 23.0 17.4 5.5 32 8.8 SW 24 35 13 19 1014.0 1013.8 0.0
19/05:30pm 24.2 18.7 5.7 30 9.4 SW 24 37 13 20 1014.0 1013.8 0.0
19/05:00pm 24.3 18.8 5.9 30 9.4 SW 24 39 13 21 1014.0 1013.8 0.0
19/04:30pm 23.1 18.3 5.7 32 8.8 S 20 30 11 16 1014.2 1014.0 0.0
19/04:00pm 23.3 18.7 6.6 34 8.6 SSW 20 33 11 18 1014.5 1014.3 0.0
19/03:30pm 23.2 18.4 5.5 31 8.9 SSW 20 35 11 19 1014.6 1014.4 0.0
19/03:00pm 23.3 18.4 6.8 34 8.5 SSW 22 33 12 18 1014.9 1014.7 0.0
19/02:30pm 22.2 17.1 6.2 35 8.1 S 22 33 12 18 1015.3 1015.1 0.0
19/02:00pm 21.9 17.5 7.4 39 7.5 SSW 20 35 11 19 1015.5 1015.3 0.0
19/01:30pm 21.9 18.2 7.9 40 7.3 S 17 28 9 15 1015.8 1015.6 0.0
19/01:00pm 21.1 17.1 8.3 43 6.7 SSW 19 30 10 16 1016.3 1016.1 0.0
19/12:30pm 20.9 17.0 8.8 46 6.4 SSW 19 30 10 16 1016.7 1016.5 0.0
19/12:00pm 20.5 16.2 7.9 44 6.5 SSW 20 30 11 16 1017.0 1016.8 0.0
19/11:30am 19.5 15.1 8.8 50 5.6 SSW 22 32 12 17 1017.0 1016.8 0.0
19/11:00am 18.5 14.7 9.8 57 4.6 SSW 20 33 11 18 1017.1 1016.9 0.0
19/10:30am 18.3 14.3 10.5 60 4.2 S 22 30 12 16 1017.1 1016.9 0.0
19/10:00am 17.8 14.4 11.2 65 3.6 SSW 20 32 11 17 1017.0 1016.8 0.0
19/09:30am 16.7 13.7 11.9 73 2.6 SSW 19 26 10 14 1017.2 1017.0 0.0
19/09:00am 16.7 13.9 11.5 71 2.8 SSW 17 26 9 14 1017.0 1016.8 0.0
19/08:30am 16.3 13.2 11.7 74 2.5 SSW 19 30 10 16 1016.7 1016.5 0.0
19/08:00am 15.9 13.3 12.0 77 2.1 SSW 17 26 9 14 1016.5 1016.3 0.0
19/07:30am 15.7 13.4 11.8 77 2.1 SSW 15 24 8 13 1016.1 1015.9 0.0
19/07:00am 15.4 12.4 12.1 81 1.8 SW 19 24 10 13 1015.7 1015.5 0.0
19/06:30am 15.4 12.8 12.1 81 1.8 SSW 17 24 9 13 1015.4 1015.2 0.0
19/06:00am 15.2 12.1 12.3 83 1.6 SW 20 28 11 15 1015.1 1014.9 0.0
19/05:30am 15.2 12.1 12.1 82 1.7 SW 20 28 11 15 1014.9 1014.7 0.0
19/05:00am 15.2 12.7 12.3 83 1.6 SW 17 28 9 15 1014.6 1014.4 0.0
19/04:30am 15.3 12.4 12.2 82 1.7 SW 19 26 10 14 1014.6 1014.4 0.0
19/04:00am 15.4 12.4 11.9 79 1.9 SW 19 26 10 14 1014.7 1014.5 0.0
19/03:30am 15.3 12.1 11.8 79 1.9 SSW 20 35 11 19 1014.6 1014.4 0.0
19/03:00am 15.5 11.3 11.2 75 2.3 SW 24 37 13 20 1014.8 1014.6 0.0
19/02:30am 15.7 11.1 11.0 73 2.5 SW 26 33 14 18 1015.1 1014.9 0.0
19/02:00am 16.0 11.7 10.7 71 2.8 SW 24 35 13 19 1015.5 1015.3 0.0
19/01:30am 16.3 12.4 10.9 70 2.9 SW 22 32 12 17 1015.7 1015.5 0.0
19/01:00am 16.5 12.3 11.1 70 2.9 SW 24 39 13 21 1015.9 1015.7 0.0
19/12:30am 16.5 13.9 12.1 75 2.4 SW 17 26 9 14 1015.9 1015.7 0.0
19/12:00am 16.7 13.5 11.9 73 2.6 SW 20 30 11 16 1015.7 1015.5 0.0
 
Date/Time
CDT
Temp
°C
App
Temp
°C
Dew
Point
°C
Rel
Hum
%
Delta-T
°C
Wind Press
QNH
hPa
Press
MSL
hPa
Rain since
9am
mm
Dir  Spd
km/h
Gust
km/h
Spd
kts
Gust
kts
18/11:30pm 16.5 13.6 12.3 76 2.3 SW 19 30 10 16 1015.6 1015.4 0.0
18/11:00pm 16.2 13.2 12.6 79 2.0 SW 20 32 11 17 1015.6 1015.4 0.0
18/10:30pm 16.1 13.3 13.2 83 1.6 SW 20 32 11 17 1015.8 1015.6 0.0
18/10:00pm 15.9 12.0 14.3 90 0.9 SSW 28 39 15 21 1015.7 1015.5 0.0
18/09:30pm 17.8 13.2 12.2 70 3.1 SW 28 43 15 23 1015.2 1015.0 0.0
18/09:00pm 18.2 13.4 11.6 65 3.6 SW 28 43 15 23 1014.9 1014.7 0.0

Other formats

Comma delimited format used in spreadsheet applications
http://www.bom.gov.au/fwo/IDS60801/IDS60801.94682.axf

JavaScript Object Notation format (JSON) in row-major order
http://www.bom.gov.au/fwo/IDS60801/IDS60801.94682.json

Data quality

Most of these data are generated automatically and are frequently updated. Quality checks on data are not normally performed. It is possible for incorrect values to appear. Refer to information at About Latest Weather Observations and please check the disclaimer before using these data.